createdAt,value
2023-01-03T00:01:25.811Z,97.68
2023-01-03T00:03:56.986Z,97.68
2023-01-03T00:06:26.579Z,97.37
2023-01-03T00:08:54.995Z,97.62
2023-01-03T00:11:45.010Z,97.89
2023-01-03T00:14:14.063Z,97.74
2023-01-03T00:16:41.159Z,97.77
2023-01-03T00:19:13.745Z,97.90
2023-01-03T00:21:41.588Z,98.30
2023-01-03T00:24:09.047Z,98.37
2023-01-03T00:26:35.983Z,98.20
2023-01-03T00:29:03.213Z,98.41
2023-01-03T00:31:29.795Z,98.65
2023-01-03T00:33:56.291Z,98.40
2023-01-03T00:36:22.691Z,97.81
2023-01-03T00:38:49.086Z,98.09
2023-01-03T00:41:17.635Z,97.95
2023-01-03T00:43:45.901Z,98.30
2023-01-03T00:46:14.212Z,98.24
2023-01-03T00:48:41.717Z,98.28
2023-01-03T00:51:13.799Z,98.51
2023-01-03T00:53:41.279Z,98.83
2023-01-03T00:56:13.554Z,98.91
2023-01-03T00:58:40.913Z,99.17
2023-01-03T01:01:13.920Z,99.29
2023-01-03T01:03:43.132Z,98.98
2023-01-03T01:06:25.609Z,98.98
2023-01-03T01:08:54.360Z,98.97
2023-01-03T01:11:21.144Z,98.89
2023-01-03T01:13:48.527Z,98.59
2023-01-03T01:16:18.050Z,98.29
2023-01-03T01:18:46.465Z,98.16
2023-01-03T01:21:17.097Z,98.14
2023-01-03T01:23:44.263Z,98.38
2023-01-03T01:26:13.337Z,98.52
2023-01-03T01:28:40.274Z,98.24
2023-01-03T01:31:10.261Z,98.45
2023-01-03T01:33:37.281Z,98.53
2023-01-03T01:36:09.110Z,98.66
2023-01-03T01:38:36.105Z,98.57
2023-01-03T01:41:02.991Z,98.53
2023-01-03T01:43:47.910Z,98.56
2023-01-03T01:46:29.705Z,98.47
2023-01-03T01:49:05.771Z,98.35
2023-01-03T01:51:35.326Z,98.52
2023-01-03T01:54:04.407Z,98.51
2023-01-03T01:56:52.815Z,98.61
2023-01-03T01:59:19.295Z,98.89
2023-01-03T02:01:48.621Z,98.80
2023-01-03T02:04:21.760Z,98.91
2023-01-03T02:06:49.059Z,98.81
2023-01-03T02:09:15.766Z,98.48
2023-01-03T02:11:51.365Z,98.33
2023-01-03T02:14:29.885Z,97.39
2023-01-03T02:17:14.736Z,96.95
2023-01-03T02:20:02.484Z,96.63
2023-01-03T02:23:07.944Z,95.70
2023-01-03T02:25:52.657Z,95.35
2023-01-03T02:28:52.521Z,94.91
2023-01-03T02:31:45.523Z,94.67
2023-01-03T02:34:35.461Z,94.57
2023-01-03T02:37:04.751Z,94.31
2023-01-03T02:39:46.274Z,94.26
2023-01-03T02:42:43.518Z,94.23
2023-01-03T02:45:33.050Z,94.35
2023-01-03T02:48:38.299Z,94.25
2023-01-03T02:51:12.821Z,94.26
2023-01-03T02:53:45.974Z,94.50
2023-01-03T02:56:17.820Z,94.66
2023-01-03T02:58:48.105Z,94.75
2023-01-03T03:01:16.801Z,95.01
2023-01-03T03:03:45.176Z,94.99
2023-01-03T03:06:17.491Z,95.05
2023-01-03T03:08:46.123Z,94.86
2023-01-03T03:11:32.657Z,94.98
2023-01-03T03:14:29.477Z,94.86
2023-01-03T03:17:02.715Z,94.97
2023-01-03T03:19:50.215Z,95.20
2023-01-03T03:22:56.881Z,95.52
2023-01-03T03:25:28.643Z,95.39
2023-01-03T03:28:21.262Z,95.50
2023-01-03T03:30:52.817Z,95.22
2023-01-03T03:33:21.859Z,95.57
2023-01-03T03:35:54.204Z,95.36
2023-01-03T03:38:27.531Z,95.69
2023-01-03T03:41:27.815Z,95.87
2023-01-03T03:44:19.992Z,96.13
2023-01-03T03:46:54.947Z,95.81
2023-01-03T03:49:40.065Z,96.89
2023-01-03T03:52:19.585Z,96.80
2023-01-03T03:54:56.627Z,96.42
2023-01-03T03:57:26.331Z,96.73
2023-01-03T03:59:56.850Z,96.88
2023-01-03T04:02:25.750Z,97.38
2023-01-03T04:04:57.700Z,97.08
2023-01-03T04:07:24.164Z,97.03
2023-01-03T04:09:50.970Z,97.14
2023-01-03T04:12:17.755Z,97.17
2023-01-03T04:14:44.172Z,97.70
2023-01-03T04:17:10.856Z,98.28
2023-01-03T04:19:37.282Z,98.88
2023-01-03T04:22:03.742Z,99.70
2023-01-03T04:24:30.161Z,100.00
2023-01-03T04:26:56.619Z,100.00
2023-01-03T04:29:23.009Z,100.00
2023-01-03T04:31:49.458Z,100.00
2023-01-03T04:34:16.156Z,100.00
2023-01-03T04:36:42.636Z,100.00
2023-01-03T04:39:09.296Z,100.00
2023-01-03T04:41:35.760Z,100.00
2023-01-03T04:44:02.288Z,99.92
2023-01-03T04:46:30.776Z,99.55
2023-01-03T04:48:57.701Z,99.47
2023-01-03T04:51:24.501Z,99.53
2023-01-03T04:53:51.029Z,99.27
2023-01-03T04:56:17.634Z,99.36
2023-01-03T04:58:44.025Z,100.00
2023-01-03T05:01:10.727Z,100.00
2023-01-03T05:03:38.021Z,100.00
2023-01-03T05:06:08.995Z,100.00
2023-01-03T05:08:35.985Z,100.00
2023-01-03T05:11:02.956Z,100.00
2023-01-03T05:13:29.429Z,100.00
2023-01-03T05:15:55.905Z,100.00
2023-01-03T05:18:22.452Z,100.00
2023-01-03T05:21:07.471Z,100.00
2023-01-03T05:23:52.639Z,100.00
2023-01-03T05:26:21.611Z,100.00
2023-01-03T05:28:52.534Z,100.00
2023-01-03T05:31:19.565Z,100.00
2023-01-03T05:33:46.187Z,100.00
2023-01-03T05:36:12.597Z,100.00
2023-01-03T05:38:39.137Z,100.00
2023-01-03T05:41:05.755Z,100.00
2023-01-03T05:43:32.255Z,100.00
2023-01-03T05:45:58.660Z,100.00
2023-01-03T05:48:25.319Z,100.00
2023-01-03T05:50:52.232Z,100.00
2023-01-03T05:53:18.719Z,100.00
2023-01-03T05:55:45.331Z,100.00
2023-01-03T05:58:13.001Z,100.00
2023-01-03T06:00:40.175Z,100.00
2023-01-03T06:03:07.549Z,100.00
2023-01-03T06:05:34.084Z,100.00
2023-01-03T06:08:01.833Z,100.00
2023-01-03T06:10:28.689Z,100.00
2023-01-03T06:12:55.254Z,100.00
2023-01-03T06:15:21.702Z,100.00
2023-01-03T06:18:02.491Z,100.00
2023-01-03T06:20:30.085Z,100.00
2023-01-03T06:22:57.123Z,100.00
2023-01-03T06:25:23.782Z,100.00
2023-01-03T06:27:50.330Z,100.00
2023-01-03T06:30:16.806Z,100.00
2023-01-03T06:32:44.764Z,100.00
2023-01-03T06:35:11.714Z,100.00
2023-01-03T06:37:38.168Z,100.00
2023-01-03T06:40:05.437Z,100.00
2023-01-03T06:42:42.703Z,100.00
2023-01-03T06:45:30.133Z,100.00
2023-01-03T06:48:15.237Z,100.00
2023-01-03T06:51:01.465Z,100.00
2023-01-03T06:53:36.933Z,100.00
2023-01-03T06:56:04.445Z,100.00
2023-01-03T06:58:31.220Z,100.00
2023-01-03T07:01:00.123Z,100.00
2023-01-03T07:03:26.601Z,100.00
2023-01-03T07:05:53.109Z,100.00
2023-01-03T07:08:19.718Z,100.00
2023-01-03T07:10:48.669Z,100.00
2023-01-03T07:13:33.694Z,100.00
2023-01-03T07:16:00.313Z,100.00
2023-01-03T07:18:26.770Z,100.00
2023-01-03T07:20:53.396Z,100.00
2023-01-03T07:23:20.261Z,100.00
2023-01-03T07:25:46.709Z,100.00
2023-01-03T07:28:14.856Z,100.00
2023-01-03T07:30:44.028Z,100.00
2023-01-03T07:33:12.382Z,100.00
2023-01-03T07:35:38.921Z,99.97
2023-01-03T07:38:06.854Z,100.00
2023-01-03T07:40:33.273Z,100.00
2023-01-03T07:43:18.282Z,100.00
2023-01-03T07:45:46.157Z,99.63
2023-01-03T07:48:13.306Z,100.00
2023-01-03T07:50:40.495Z,100.00
2023-01-03T07:53:08.554Z,100.00
2023-01-03T07:55:36.976Z,100.00
2023-01-03T07:58:03.648Z,100.00
2023-01-03T08:00:30.046Z,100.00
2023-01-03T08:02:56.565Z,100.00
2023-01-03T08:05:23.893Z,100.00
2023-01-03T08:07:52.188Z,100.00
2023-01-03T08:10:37.814Z,100.00
2023-01-03T08:13:19.501Z,100.00
2023-01-03T08:15:52.268Z,100.00
2023-01-03T08:18:27.515Z,100.00
2023-01-03T08:20:56.531Z,100.00
2023-01-03T08:23:24.146Z,100.00
2023-01-03T08:55:38.039Z,100.00
2023-01-03T08:58:04.464Z,100.00
2023-01-03T09:00:31.096Z,100.00
2023-01-03T09:02:59.986Z,99.91
2023-01-03T09:05:27.959Z,100.00
2023-01-03T09:07:55.341Z,100.00
2023-01-03T09:10:23.027Z,99.79
2023-01-03T09:12:49.872Z,99.44
2023-01-03T09:15:16.476Z,99.04
2023-01-03T09:17:45.159Z,98.57
2023-01-03T09:20:12.552Z,98.00
2023-01-03T09:22:38.936Z,97.96
2023-01-03T09:25:05.725Z,97.45
2023-01-03T09:27:32.110Z,97.30
2023-01-03T09:29:58.507Z,97.23
2023-01-03T09:32:24.877Z,96.90
2023-01-03T09:34:51.206Z,96.59
2023-01-03T09:37:17.686Z,96.71
2023-01-03T09:39:44.021Z,96.56
2023-01-03T09:42:38.716Z,96.58
2023-01-03T09:45:07.957Z,96.53
2023-01-03T09:47:37.897Z,96.27
2023-01-03T09:53:12.200Z,95.68
2023-01-03T09:56:15.009Z,95.01
2023-01-03T09:59:02.276Z,95.34
2023-01-03T10:01:54.645Z,95.02
2023-01-03T10:04:52.682Z,95.12
2023-01-03T10:07:53.123Z,94.97
2023-01-03T10:10:41.035Z,94.72
2023-01-03T10:13:19.517Z,94.47
2023-01-03T10:15:58.777Z,94.20
2023-01-03T10:18:38.254Z,95.07
2023-01-03T10:21:22.295Z,94.44
2023-01-03T10:23:49.749Z,93.74
2023-01-03T10:26:16.222Z,93.28
2023-01-03T10:28:45.274Z,93.27
2023-01-03T10:31:43.044Z,92.65
2023-01-03T10:34:10.515Z,91.68
2023-01-03T10:36:36.923Z,90.86
2023-01-03T10:39:10.045Z,90.34
2023-01-03T10:41:43.724Z,90.11
2023-01-03T10:44:25.469Z,89.42
2023-01-03T10:46:54.904Z,89.68
2023-01-03T10:49:28.929Z,89.13
2023-01-03T10:52:22.813Z,88.50
2023-01-03T10:54:53.905Z,87.40
2023-01-03T10:57:59.065Z,87.31
2023-01-03T11:00:30.195Z,86.66
2023-01-03T11:03:12.653Z,86.44
2023-01-03T11:05:42.011Z,86.37
2023-01-03T11:08:18.501Z,86.34
2023-01-03T11:11:00.674Z,85.43
2023-01-03T11:13:36.911Z,85.14
2023-01-03T11:16:12.812Z,84.31
2023-01-03T11:18:41.304Z,84.66
2023-01-03T11:21:25.447Z,84.09
2023-01-03T11:24:40.854Z,83.53
2023-01-03T11:27:38.921Z,82.80
2023-01-03T11:30:17.459Z,82.53
2023-01-03T11:32:56.338Z,82.50
2023-01-03T11:35:38.875Z,81.56
2023-01-03T11:38:43.861Z,80.98
2023-01-03T11:41:29.425Z,80.83
2023-01-03T11:44:33.436Z,80.47
2023-01-03T11:47:38.591Z,80.13
2023-01-03T11:50:16.977Z,80.06
2023-01-03T11:52:53.052Z,80.04
2023-01-03T11:55:44.061Z,79.67
2023-01-03T11:58:54.340Z,79.46
2023-01-03T12:01:20.763Z,78.93
2023-01-03T12:04:13.022Z,78.73
2023-01-03T12:07:36.898Z,78.59
2023-01-03T12:10:25.408Z,78.69
2023-01-03T12:13:05.487Z,78.14
2023-01-03T12:16:08.564Z,77.69
2023-01-03T12:18:58.457Z,77.02
2023-01-03T12:21:34.839Z,77.00
2023-01-03T12:24:15.316Z,76.88
2023-01-03T12:26:45.051Z,76.87
2023-01-03T12:29:29.186Z,77.10
2023-01-03T12:32:08.547Z,76.74
2023-01-03T12:34:49.708Z,76.68
2023-01-03T12:37:30.860Z,75.63
2023-01-03T12:40:01.595Z,75.71
2023-01-03T12:42:50.016Z,75.75
2023-01-03T12:45:27.353Z,75.18
2023-01-03T12:48:13.368Z,75.04
2023-01-03T12:50:47.326Z,75.33
2023-01-03T12:53:22.456Z,75.03
2023-01-03T12:56:06.962Z,74.99
2023-01-03T12:59:01.202Z,74.79
2023-01-03T13:01:54.154Z,74.47
2023-01-03T13:04:33.541Z,73.85
2023-01-03T13:07:12.172Z,74.12
2023-01-03T13:09:44.832Z,73.45
2023-01-03T13:12:21.320Z,73.74
2023-01-03T13:14:54.548Z,74.06
2023-01-03T13:17:24.794Z,73.95
2023-01-03T13:19:56.651Z,74.14
2023-01-03T13:22:43.330Z,74.29
2023-01-03T13:25:31.724Z,74.47
2023-01-03T13:28:00.576Z,74.17
2023-01-03T13:30:29.746Z,73.71
2023-01-03T13:33:09.801Z,73.30
2023-01-03T13:35:52.410Z,72.56
2023-01-03T13:38:37.307Z,71.95
2023-01-03T13:41:32.440Z,71.95
2023-01-03T13:44:08.964Z,72.04
2023-01-03T13:46:39.329Z,71.84
2023-01-03T13:49:07.606Z,71.85
2023-01-03T13:51:40.204Z,71.64
2023-01-03T13:54:12.777Z,71.68
2023-01-03T13:56:45.116Z,71.77
2023-01-03T13:59:14.653Z,71.18
2023-01-03T14:01:59.068Z,70.91
2023-01-03T14:04:42.222Z,71.19
2023-01-03T14:07:32.911Z,71.12
2023-01-03T14:10:29.190Z,70.59
2023-01-03T14:13:09.468Z,69.77
2023-01-03T14:15:42.738Z,69.37
2023-01-03T14:18:30.129Z,68.48
2023-01-03T14:20:59.135Z,68.38
2023-01-03T14:26:16.664Z,68.27
2023-01-03T14:28:47.118Z,67.82
2023-01-03T14:31:20.206Z,68.11
2023-01-03T14:33:54.552Z,68.10
2023-01-03T14:36:20.974Z,68.25
2023-01-03T14:38:54.899Z,68.30
2023-01-03T14:41:32.742Z,68.27
2023-01-03T14:44:19.519Z,68.38
2023-01-03T14:46:53.373Z,68.40
2023-01-03T14:49:26.655Z,68.41
2023-01-03T14:52:02.466Z,68.48
2023-01-03T14:54:29.750Z,68.61
2023-01-03T14:56:56.373Z,68.88
2023-01-03T14:59:23.452Z,68.86
2023-01-03T15:01:50.794Z,69.13
2023-01-03T15:04:17.713Z,69.24
2023-01-03T15:07:07.973Z,69.18
2023-01-03T15:09:39.231Z,69.16
2023-01-03T15:12:06.318Z,69.15
2023-01-03T15:14:36.027Z,69.22
2023-01-03T15:17:11.317Z,69.27
2023-01-03T15:19:40.937Z,69.38
2023-01-03T15:22:16.077Z,69.52
2023-01-03T15:24:49.238Z,69.58
2023-01-03T15:27:51.562Z,69.93
2023-01-03T15:30:23.056Z,69.98
2023-01-03T15:33:02.627Z,70.11
2023-01-03T15:35:37.211Z,70.16
2023-01-03T15:38:12.498Z,70.14
2023-01-03T15:40:40.194Z,70.36
2023-01-03T15:43:23.398Z,70.60
2023-01-03T15:46:13.546Z,70.53
2023-01-03T15:48:43.591Z,70.89
2023-01-03T15:51:10.029Z,71.09
2023-01-03T15:53:43.663Z,71.58
2023-01-03T15:56:16.512Z,71.25
2023-01-03T15:58:43.332Z,71.40
2023-01-03T16:01:10.666Z,71.82
2023-01-03T16:03:37.430Z,71.74
2023-01-03T16:06:05.099Z,71.64
2023-01-03T16:08:36.618Z,72.30
2023-01-03T16:11:06.318Z,72.24
2023-01-03T16:13:39.981Z,72.63
2023-01-03T16:16:08.059Z,72.59
2023-01-03T16:18:39.123Z,72.64
2023-01-03T16:21:06.143Z,72.70
2023-01-03T16:23:34.525Z,72.83
2023-01-03T16:26:01.255Z,72.73
2023-01-03T16:28:27.835Z,72.85
2023-01-03T16:31:20.352Z,72.69
2023-01-03T16:33:49.429Z,73.03
2023-01-03T16:36:39.508Z,73.21
2023-01-03T16:39:14.070Z,73.26
2023-01-03T16:41:40.500Z,73.45
2023-01-03T16:44:06.878Z,73.73
2023-01-03T16:46:35.712Z,73.78
2023-01-03T16:49:02.435Z,73.91
2023-01-03T16:51:32.527Z,73.98
2023-01-03T16:54:00.422Z,73.88
2023-01-03T16:56:27.167Z,73.93
2023-01-03T16:58:53.587Z,73.73
2023-01-03T17:01:20.735Z,73.94
2023-01-03T17:03:47.339Z,73.87
2023-01-03T17:06:33.448Z,73.77
2023-01-03T17:09:20.252Z,74.18
2023-01-03T17:11:47.299Z,73.92
2023-01-03T17:14:19.490Z,74.02
2023-01-03T17:16:46.618Z,74.57
2023-01-03T17:19:52.263Z,74.61
2023-01-03T17:22:03.492Z,74.87
2023-01-03T17:24:30.410Z,74.84
2023-01-03T17:27:03.486Z,75.03
2023-01-03T17:29:30.671Z,75.45
2023-01-03T17:31:57.138Z,75.55
2023-01-03T17:34:27.369Z,75.62
2023-01-03T17:36:55.185Z,75.51
2023-01-03T17:39:22.292Z,75.79
2023-01-03T17:42:08.382Z,75.56
2023-01-03T17:44:34.737Z,75.74
2023-01-03T17:47:41.299Z,76.09
2023-01-03T17:50:09.610Z,76.23
2023-01-03T17:52:37.625Z,76.06
2023-01-03T17:55:16.393Z,76.13
2023-01-03T17:57:42.754Z,76.37
2023-01-03T18:00:29.588Z,76.68
2023-01-03T18:02:56.939Z,76.86
2023-01-03T18:05:28.517Z,77.00
2023-01-03T18:07:57.559Z,77.40
2023-01-03T18:10:32.713Z,77.55
2023-01-03T18:12:59.312Z,77.31
2023-01-03T18:15:25.718Z,77.48
2023-01-03T18:17:52.499Z,77.71
2023-01-03T18:20:20.687Z,77.75
2023-01-03T18:22:47.364Z,78.13
2023-01-03T18:25:22.609Z,77.85
2023-01-03T18:27:53.610Z,77.93
2023-01-03T18:30:20.163Z,78.04
2023-01-03T18:32:46.656Z,77.98
2023-01-03T18:35:22.505Z,78.04
2023-01-03T18:37:54.207Z,78.09
2023-01-03T18:40:27.783Z,78.25
2023-01-03T18:43:08.576Z,78.11
2023-01-03T18:45:36.547Z,78.05
2023-01-03T18:48:03.160Z,78.48
2023-01-03T18:50:30.654Z,78.39
2023-01-03T18:53:01.039Z,78.54
2023-01-03T18:55:30.205Z,78.33
2023-01-03T18:57:59.876Z,78.50
2023-01-03T19:00:26.570Z,78.63
2023-01-03T19:02:54.594Z,78.60
2023-01-03T19:05:21.203Z,78.61
2023-01-03T19:07:51.049Z,78.75
2023-01-03T19:10:26.167Z,79.02
2023-01-03T19:12:55.671Z,79.30
2023-01-03T19:15:29.022Z,78.96
2023-01-03T19:17:56.768Z,79.31
2023-01-03T19:20:27.105Z,79.14
2023-01-03T19:22:55.141Z,79.45
2023-01-03T19:25:27.635Z,79.72
2023-01-03T19:27:56.185Z,80.06
2023-01-03T19:30:38.279Z,79.91
2023-01-03T19:33:07.489Z,80.30
2023-01-03T19:35:33.927Z,80.64
2023-01-03T19:38:00.419Z,80.67
2023-01-03T19:40:30.774Z,80.48
2023-01-03T19:42:58.960Z,80.88
2023-01-03T19:45:38.429Z,80.71
2023-01-03T19:48:15.936Z,80.53
2023-01-03T19:50:42.298Z,80.72
2023-01-03T19:53:08.654Z,80.47
2023-01-03T19:55:39.002Z,80.63
2023-01-03T19:58:14.594Z,80.71
2023-01-03T20:00:41.164Z,80.62
2023-01-03T20:03:18.097Z,80.58
2023-01-03T20:05:44.606Z,80.33
2023-01-03T20:08:12.550Z,80.68
2023-01-03T20:10:41.046Z,80.97
2023-01-03T20:13:16.068Z,81.75
2023-01-03T20:15:43.953Z,83.15
2023-01-03T20:18:29.158Z,82.77
2023-01-03T20:20:59.123Z,82.30
2023-01-03T20:23:29.704Z,82.40
2023-01-03T20:25:56.110Z,82.18
2023-01-03T20:28:29.413Z,82.68
2023-01-03T20:30:57.573Z,82.84
2023-01-03T20:33:25.006Z,82.30
2023-01-03T20:36:14.313Z,81.56
2023-01-03T20:38:43.580Z,82.07
2023-01-03T20:41:12.620Z,82.10
2023-01-03T20:43:39.148Z,82.11
2023-01-03T20:46:06.066Z,82.20
2023-01-03T20:48:32.526Z,81.89
2023-01-03T20:50:58.985Z,82.34
2023-01-03T20:53:26.935Z,82.30
2023-01-03T20:55:53.852Z,82.62
2023-01-03T20:58:25.137Z,82.61
2023-01-03T21:00:55.628Z,82.39
2023-01-03T21:03:24.876Z,82.83
2023-01-03T21:05:51.537Z,82.96
2023-01-03T21:08:36.674Z,83.12
2023-01-03T21:11:03.093Z,82.89
2023-01-03T21:13:29.512Z,82.94
2023-01-03T21:15:56.242Z,83.00
2023-01-03T21:18:22.709Z,83.21
2023-01-03T21:20:49.161Z,83.58
2023-01-03T21:23:25.545Z,83.66
2023-01-03T21:25:54.790Z,84.20
2023-01-03T21:28:21.250Z,84.14
2023-01-03T21:30:47.597Z,84.19
2023-01-03T21:33:21.789Z,84.06
2023-01-03T21:35:51.076Z,83.92
2023-01-03T21:38:17.725Z,84.26
2023-01-03T21:40:47.467Z,84.31
2023-01-03T21:43:13.960Z,84.21
2023-01-03T21:45:44.141Z,84.58
2023-01-03T21:48:16.655Z,84.76
2023-01-03T21:50:49.747Z,84.80
2023-01-03T21:53:18.973Z,84.97
2023-01-03T21:55:45.629Z,84.80
2023-01-03T21:58:16.856Z,85.02
2023-01-03T22:00:44.047Z,84.87
2023-01-03T22:03:33.809Z,84.93
2023-01-03T22:06:07.127Z,85.00
2023-01-03T22:08:34.344Z,85.12
2023-01-03T22:11:04.362Z,85.09
2023-01-03T22:13:31.522Z,85.18
2023-01-03T22:16:04.867Z,85.69
2023-01-03T22:18:31.547Z,85.52
2023-01-03T22:21:06.864Z,85.45
2023-01-03T22:23:33.968Z,84.92
2023-01-03T22:26:04.965Z,85.67
2023-01-03T22:28:36.653Z,85.28
2023-01-03T22:31:19.688Z,85.39
2023-01-03T22:33:47.549Z,85.58
2023-01-03T22:36:14.893Z,85.60
2023-01-03T22:38:52.518Z,85.37
2023-01-03T22:41:19.080Z,85.73
2023-01-03T22:43:45.947Z,85.57
2023-01-03T22:46:14.957Z,85.58
2023-01-03T22:48:42.001Z,85.22
2023-01-03T22:51:16.286Z,85.76
2023-01-03T22:53:45.337Z,85.62
2023-01-03T22:56:16.581Z,85.63
2023-01-03T22:58:44.020Z,85.57
2023-01-03T23:01:10.453Z,85.80
2023-01-03T23:03:36.936Z,86.23
2023-01-03T23:06:12.244Z,86.09
2023-01-03T23:08:40.959Z,86.54
2023-01-03T23:11:33.437Z,86.64
2023-01-03T23:14:02.622Z,86.49
2023-01-03T23:16:29.083Z,86.28
2023-01-03T23:18:55.499Z,86.57
2023-01-03T23:21:21.844Z,86.48
2023-01-03T23:23:51.396Z,86.81
2023-01-03T23:26:17.996Z,86.52
2023-01-03T23:28:44.767Z,86.62
2023-01-03T23:31:11.315Z,86.72
2023-01-03T23:33:37.826Z,86.64
2023-01-03T23:36:09.676Z,86.53
2023-01-03T23:38:36.053Z,86.25
2023-01-03T23:41:07.123Z,86.19
2023-01-03T23:43:34.095Z,86.14
2023-01-03T23:46:00.859Z,86.08
2023-01-03T23:48:27.513Z,85.81
2023-01-03T23:50:54.024Z,85.68
2023-01-03T23:53:20.413Z,85.58
2023-01-03T23:55:47.007Z,85.57
2023-01-03T23:58:13.474Z,85.25
